createdAt,value
2023-04-10T00:02:24.335Z,11.25
2023-04-10T00:04:51.212Z,7.93
2023-04-10T00:07:18.034Z,11.40
2023-04-10T00:09:44.771Z,10.20
2023-04-10T00:12:11.578Z,11.13
2023-04-10T00:14:38.359Z,13.75
2023-04-10T00:17:05.079Z,12.10
2023-04-10T00:19:31.729Z,12.18
2023-04-10T00:21:58.393Z,14.18
2023-04-10T00:24:25.318Z,14.23
2023-04-10T00:26:51.996Z,11.30
2023-04-10T00:29:18.779Z,10.65
2023-04-10T00:31:45.492Z,13.93
2023-04-10T00:34:14.093Z,11.63
2023-04-10T00:36:40.914Z,14.32
2023-04-10T00:39:08.700Z,11.38
2023-04-10T00:41:35.378Z,14.68
2023-04-10T00:44:02.108Z,15.07
2023-04-10T00:46:31.048Z,12.13
2023-04-10T00:48:58.351Z,11.18
2023-04-10T00:51:25.105Z,11.45
2023-04-10T00:53:52.343Z,13.27
2023-04-10T00:56:20.001Z,12.40
2023-04-10T00:58:47.362Z,13.55
2023-04-10T01:01:14.285Z,14.35
2023-04-10T01:03:42.604Z,11.82
2023-04-10T01:06:24.184Z,11.85
2023-04-10T01:09:04.933Z,17.23
2023-04-10T01:12:14.184Z,12.48
2023-04-10T01:14:54.126Z,13.75
2023-04-10T01:17:32.903Z,17.38
2023-04-10T01:20:10.885Z,13.07
2023-04-10T01:23:09.907Z,12.52
2023-04-10T01:25:49.298Z,11.02
2023-04-10T01:28:19.020Z,13.65
2023-04-10T01:33:20.702Z,13.13
2023-04-10T01:35:54.945Z,14.52
2023-04-10T01:38:23.887Z,14.00
2023-04-10T01:40:53.288Z,15.00
2023-04-10T01:43:21.750Z,14.27
2023-04-10T01:45:51.251Z,15.88
2023-04-10T01:48:19.099Z,18.02
2023-04-10T01:50:47.728Z,15.32
2023-04-10T01:53:15.819Z,11.55
2023-04-10T01:55:43.383Z,22.50
2023-04-10T01:58:11.121Z,14.10
2023-04-10T02:00:39.951Z,15.30
2023-04-10T02:03:06.999Z,15.80
2023-04-10T02:05:41.546Z,13.20
2023-04-10T02:08:15.916Z,15.95
2023-04-10T02:11:04.060Z,14.23
2023-04-10T02:13:33.763Z,14.10
2023-04-10T02:22:18.143Z,14.13
2023-04-10T02:24:45.520Z,13.35
2023-04-10T02:27:12.202Z,18.50
2023-04-10T02:29:38.880Z,13.68
2023-04-10T02:32:06.425Z,15.20
2023-04-10T02:34:33.215Z,14.48
2023-04-10T02:36:59.926Z,12.13
2023-04-10T02:39:26.581Z,10.48
2023-04-10T02:41:53.319Z,11.15
2023-04-10T02:44:19.924Z,16.45
2023-04-10T02:46:47.185Z,15.40
2023-04-10T02:49:13.975Z,15.55
2023-04-10T02:51:40.644Z,15.95
2023-04-10T02:54:07.284Z,13.52
2023-04-10T02:56:35.100Z,16.20
2023-04-10T02:59:02.115Z,14.50
2023-04-10T03:01:28.910Z,15.75
2023-04-10T03:03:55.764Z,15.75
2023-04-10T03:06:26.145Z,12.82
2023-04-10T03:08:53.338Z,13.35
2023-04-10T03:11:20.030Z,13.95
2023-04-10T03:13:47.364Z,14.88
2023-04-10T03:16:14.062Z,13.50
2023-04-10T03:18:40.710Z,12.05
2023-04-10T03:21:07.606Z,16.27
2023-04-10T03:23:34.233Z,14.02
2023-04-10T03:26:01.812Z,13.85
2023-04-10T03:28:29.669Z,17.75
2023-04-10T03:30:56.456Z,15.05
2023-04-10T03:33:23.133Z,12.73
2023-04-10T03:35:49.976Z,16.15
2023-04-10T03:38:16.751Z,13.55
2023-04-10T03:40:43.389Z,31.60
2023-04-10T03:43:10.113Z,14.38
2023-04-10T03:45:36.811Z,17.00
2023-04-10T03:48:03.646Z,16.10
2023-04-10T03:50:30.502Z,16.25
2023-04-10T03:52:57.138Z,12.70
2023-04-10T03:55:23.875Z,17.75
2023-04-10T03:57:50.679Z,15.55
2023-04-10T04:00:17.815Z,17.77
2023-04-10T04:02:44.765Z,14.55
2023-04-10T04:05:11.692Z,16.67
2023-04-10T04:07:38.450Z,16.70
2023-04-10T04:10:05.593Z,16.40
2023-04-10T04:12:32.236Z,15.45
2023-04-10T04:14:58.865Z,17.15
2023-04-10T04:17:25.587Z,17.50
2023-04-10T04:19:52.349Z,14.38
2023-04-10T04:22:20.110Z,15.50
2023-04-10T04:24:46.736Z,16.92
2023-04-10T04:27:13.415Z,16.30
2023-04-10T04:29:40.645Z,17.13
2023-04-10T04:32:07.444Z,16.88
2023-04-10T04:34:34.126Z,18.70
2023-04-10T04:37:02.079Z,19.17
2023-04-10T04:39:28.837Z,14.18
2023-04-10T04:41:55.726Z,17.42
2023-04-10T04:44:22.536Z,18.15
2023-04-10T04:46:49.193Z,19.10
2023-04-10T04:49:16.007Z,14.52
2023-04-10T04:51:42.747Z,16.48
2023-04-10T04:54:09.482Z,16.15
2023-04-10T04:56:36.355Z,17.77
2023-04-10T04:59:03.154Z,16.85
2023-04-10T05:01:31.441Z,16.33
2023-04-10T05:03:58.274Z,17.92
2023-04-10T05:06:24.948Z,16.67
2023-04-10T05:08:53.120Z,15.73
2023-04-10T05:11:20.596Z,15.93
2023-04-10T05:13:47.308Z,17.30
2023-04-10T05:16:14.029Z,16.13
2023-04-10T05:18:41.335Z,15.43
2023-04-10T05:21:08.029Z,15.77
2023-04-10T05:23:34.804Z,16.33
2023-04-10T05:26:01.564Z,17.65
2023-04-10T05:28:28.175Z,19.13
2023-04-10T05:30:55.001Z,16.45
2023-04-10T05:33:22.350Z,17.90
2023-04-10T05:35:49.032Z,13.73
2023-04-10T05:38:15.659Z,17.58
2023-04-10T05:40:45.627Z,18.58
2023-04-10T05:43:12.504Z,17.45
2023-04-10T05:45:40.579Z,18.38
2023-04-10T05:48:07.271Z,15.93
2023-04-10T05:50:35.695Z,18.80
2023-04-10T05:53:02.358Z,19.20
2023-04-10T05:55:32.099Z,14.27
2023-04-10T06:00:25.509Z,16.38
2023-04-10T06:02:52.199Z,14.52
2023-04-10T06:05:19.069Z,16.58
2023-04-10T06:07:45.951Z,16.60
2023-04-10T06:10:12.687Z,16.30
2023-04-10T06:12:39.283Z,15.77
2023-04-10T06:15:06.429Z,18.38
2023-04-10T06:17:33.050Z,13.40
2023-04-10T06:20:01.098Z,16.15
2023-04-10T06:22:28.595Z,14.07
2023-04-10T06:24:55.266Z,14.88
2023-04-10T06:27:21.905Z,15.65
2023-04-10T06:29:48.651Z,14.98
2023-04-10T06:32:15.452Z,15.68
2023-04-10T06:34:42.132Z,17.30
2023-04-10T06:37:08.773Z,16.83
2023-04-10T06:39:35.442Z,15.48
2023-04-10T06:42:03.636Z,18.30
2023-04-10T06:44:30.636Z,19.08
2023-04-10T06:46:57.353Z,18.50
2023-04-10T06:49:24.442Z,19.67
2023-04-10T06:51:51.073Z,19.17
2023-04-10T06:54:17.812Z,17.80
2023-04-10T06:56:44.511Z,16.15
2023-04-10T06:59:11.230Z,18.17
2023-04-10T07:01:37.911Z,17.30
2023-04-10T07:04:04.768Z,20.63
2023-04-10T07:06:31.653Z,19.38
2023-04-10T07:08:58.268Z,19.25
2023-04-10T07:11:25.433Z,17.38
2023-04-10T07:13:53.946Z,18.70
2023-04-10T07:16:20.889Z,18.20
2023-04-10T07:18:47.787Z,20.77
2023-04-10T07:21:14.828Z,19.70
2023-04-10T07:23:41.580Z,18.10
2023-04-10T07:26:08.312Z,21.35
2023-04-10T07:28:35.074Z,18.30
2023-04-10T07:31:01.892Z,20.80
2023-04-10T07:33:28.700Z,19.27
2023-04-10T07:35:55.465Z,19.15
2023-04-10T07:38:24.136Z,19.48
2023-04-10T07:40:57.081Z,23.13
2023-04-10T07:43:24.111Z,20.13
2023-04-10T07:45:51.283Z,17.48
2023-04-10T07:48:18.236Z,19.83
2023-04-10T07:50:44.851Z,17.38
2023-04-10T07:53:11.576Z,17.83
2023-04-10T07:55:39.530Z,18.08
2023-04-10T07:58:06.521Z,19.95
2023-04-10T08:00:33.984Z,19.33
2023-04-10T08:03:01.774Z,21.95
2023-04-10T08:05:29.175Z,22.10
2023-04-10T08:07:56.438Z,17.92
2023-04-10T08:10:23.174Z,20.08
2023-04-10T08:12:49.899Z,20.92
2023-04-10T08:15:18.288Z,20.10
2023-04-10T08:17:44.952Z,18.75
2023-04-10T08:20:12.474Z,18.23
2023-04-10T08:22:39.223Z,17.60
2023-04-10T08:25:06.261Z,25.67
2023-04-10T08:27:32.909Z,19.60
2023-04-10T08:29:59.641Z,21.15
2023-04-10T08:32:26.735Z,19.38
2023-04-10T08:34:53.425Z,19.45
2023-04-10T08:37:21.315Z,18.70
2023-04-10T08:39:48.047Z,19.95
2023-04-10T08:42:14.794Z,18.83
2023-04-10T08:44:41.775Z,20.80
2023-04-10T08:47:09.079Z,17.85
2023-04-10T08:49:45.971Z,16.55
2023-04-10T08:52:16.701Z,19.00
2023-04-10T08:54:53.667Z,18.92
2023-04-10T08:57:22.148Z,17.45
2023-04-10T08:59:51.575Z,16.30
2023-04-10T09:02:19.237Z,18.88
2023-04-10T09:04:51.854Z,15.15
2023-04-10T09:07:18.875Z,17.80
2023-04-10T09:09:45.476Z,16.52
2023-04-10T09:12:14.091Z,17.65
2023-04-10T09:14:41.379Z,15.52
2023-04-10T09:17:23.012Z,14.65
2023-04-10T09:19:54.490Z,14.30
2023-04-10T09:22:35.694Z,15.60
2023-04-10T09:25:04.305Z,14.40
2023-04-10T09:27:35.855Z,11.38
2023-04-10T09:30:03.688Z,11.63
2023-04-10T09:32:45.029Z,13.43
2023-04-10T09:35:13.642Z,11.73
2023-04-10T09:37:42.322Z,11.25
2023-04-10T09:40:24.581Z,12.23
2023-04-10T09:42:52.181Z,9.90
2023-04-10T09:45:20.428Z,12.15
2023-04-10T09:48:07.817Z,10.82
2023-04-10T09:50:39.938Z,12.15
2023-04-10T09:53:21.749Z,10.30
2023-04-10T09:55:50.064Z,13.02
2023-04-10T09:58:17.982Z,10.77
2023-04-10T10:00:46.664Z,11.43
2023-04-10T10:03:18.860Z,21.77
2023-04-10T10:05:48.328Z,8.85
2023-04-10T10:08:16.375Z,11.75
2023-04-10T10:10:56.549Z,9.52
2023-04-10T10:13:41.832Z,9.70
2023-04-10T10:16:16.005Z,9.48
2023-04-10T10:18:48.652Z,8.55
2023-04-10T10:21:16.914Z,9.00
2023-04-10T10:23:44.338Z,9.27
2023-04-10T10:26:11.454Z,8.07
2023-04-10T10:28:40.421Z,8.38
2023-04-10T10:31:07.249Z,9.20
2023-04-10T10:33:37.097Z,8.73
2023-04-10T10:36:04.805Z,8.82
2023-04-10T10:38:32.440Z,8.82
2023-04-10T10:41:15.513Z,8.95
2023-04-10T10:43:52.790Z,8.02
2023-04-10T10:46:35.845Z,7.53
2023-04-10T10:49:02.546Z,7.65
2023-04-10T10:51:51.715Z,8.27
2023-04-10T10:54:33.087Z,7.32
2023-04-10T10:57:00.540Z,7.90
2023-04-10T10:59:46.185Z,7.00
2023-04-10T11:02:17.077Z,6.50
2023-04-10T11:04:50.525Z,6.25
2023-04-10T11:07:17.541Z,6.95
2023-04-10T11:09:51.847Z,6.13
2023-04-10T11:12:22.313Z,6.20
2023-04-10T11:15:00.140Z,5.97
2023-04-10T11:17:50.912Z,5.90
2023-04-10T11:20:27.471Z,5.68
2023-04-10T11:23:13.891Z,6.38
2023-04-10T11:25:47.845Z,5.97
2023-04-10T11:28:33.037Z,6.85
2023-04-10T11:31:22.106Z,5.72
2023-04-10T11:34:10.721Z,6.00
2023-04-10T11:36:42.953Z,6.18
2023-04-10T11:39:14.571Z,5.55
2023-04-10T11:41:43.391Z,5.90
2023-04-10T11:44:21.181Z,5.15
2023-04-10T11:46:48.193Z,5.25
2023-04-10T11:49:26.661Z,4.20
2023-04-10T11:51:53.957Z,5.28
2023-04-10T11:54:25.996Z,4.40
2023-04-10T11:57:14.894Z,4.38
2023-04-10T11:59:41.561Z,4.18
2023-04-10T12:02:15.065Z,3.70
2023-04-10T12:04:43.762Z,3.00
2023-04-10T12:07:11.124Z,3.10
2023-04-10T12:09:37.894Z,1.95
2023-04-10T12:12:06.660Z,2.55
2023-04-10T12:14:42.535Z,2.90
2023-04-10T12:17:11.409Z,3.10
2023-04-10T12:19:39.438Z,2.92
2023-04-10T12:22:06.677Z,2.65
2023-04-10T12:24:46.642Z,2.80
2023-04-10T12:27:19.928Z,3.28
2023-04-10T12:29:48.324Z,2.83
2023-04-10T12:32:15.787Z,2.78
2023-04-10T12:34:49.481Z,2.63
2023-04-10T12:37:16.110Z,2.92
2023-04-10T12:39:42.884Z,2.55
2023-04-10T12:42:13.355Z,2.13
2023-04-10T12:44:59.414Z,2.58
2023-04-10T12:47:27.901Z,2.38
2023-04-10T12:50:07.617Z,2.40
2023-04-10T12:52:35.633Z,2.42
2023-04-10T12:55:16.768Z,2.28
2023-04-10T12:57:46.174Z,2.50
2023-04-10T13:00:16.415Z,2.63
2023-04-10T13:02:43.722Z,2.45
2023-04-10T13:05:11.289Z,2.10
2023-04-10T13:07:38.500Z,2.30
2023-04-10T13:10:06.142Z,2.58
2023-04-10T13:12:34.870Z,2.80
2023-04-10T13:15:02.891Z,2.73
2023-04-10T13:17:29.920Z,2.70
2023-04-10T13:19:56.675Z,2.47
2023-04-10T13:22:23.341Z,2.47
2023-04-10T13:24:50.090Z,3.10
2023-04-10T13:27:16.721Z,2.83
2023-04-10T13:29:43.850Z,2.90
2023-04-10T13:32:10.774Z,3.92
2023-04-10T13:34:37.705Z,3.92
2023-04-10T13:37:04.663Z,4.55
2023-04-10T13:39:32.085Z,3.90
2023-04-10T13:41:59.488Z,6.15
2023-04-10T13:44:26.233Z,5.28
2023-04-10T13:46:53.192Z,3.45
2023-04-10T13:49:21.845Z,4.47
2023-04-10T13:51:48.597Z,3.78
2023-04-10T13:54:17.111Z,4.40
2023-04-10T13:56:44.880Z,3.33
2023-04-10T13:59:11.737Z,3.83
2023-04-10T14:01:38.487Z,4.05
2023-04-10T14:04:05.304Z,4.20
2023-04-10T14:06:32.191Z,4.55
2023-04-10T14:08:58.943Z,4.22
2023-04-10T14:11:26.303Z,3.45
2023-04-10T14:13:53.365Z,4.28
2023-04-10T14:16:20.178Z,5.20
2023-04-10T14:18:46.856Z,3.60
2023-04-10T14:21:13.593Z,4.00
2023-04-10T14:23:42.292Z,3.47
2023-04-10T14:26:09.339Z,4.27
2023-04-10T14:28:36.156Z,4.30
2023-04-10T14:31:04.638Z,4.82
2023-04-10T14:33:31.411Z,4.88
2023-04-10T14:35:58.139Z,4.63
2023-04-10T14:38:24.908Z,4.55
2023-04-10T14:40:51.837Z,6.35
2023-04-10T14:43:19.585Z,4.90
2023-04-10T14:45:46.583Z,4.10
2023-04-10T14:48:13.521Z,3.92
2023-04-10T14:50:40.579Z,3.88
2023-04-10T14:53:09.920Z,3.05
2023-04-10T14:55:37.346Z,3.55
2023-04-10T14:58:04.364Z,3.40
2023-04-10T15:00:31.767Z,4.13
2023-04-10T15:02:58.687Z,4.32
2023-04-10T15:05:26.335Z,3.75
2023-04-10T15:07:53.460Z,3.13
2023-04-10T15:10:20.308Z,3.40
2023-04-10T15:12:47.094Z,3.50
2023-04-10T15:15:13.926Z,3.72
2023-04-10T15:17:41.294Z,2.80
2023-04-10T15:20:08.361Z,3.00
2023-04-10T15:22:35.781Z,5.28
2023-04-10T15:25:02.598Z,5.53
2023-04-10T15:27:29.346Z,4.07
2023-04-10T15:29:56.149Z,3.15
2023-04-10T15:32:22.900Z,3.22
2023-04-10T15:34:49.640Z,3.95
2023-04-10T15:37:16.398Z,3.85
2023-04-10T15:39:43.090Z,4.07
2023-04-10T15:42:09.860Z,4.38
2023-04-10T15:44:36.511Z,6.00
2023-04-10T15:47:03.373Z,4.40
2023-04-10T15:49:37.948Z,5.38
2023-04-10T15:52:06.662Z,3.60
2023-04-10T15:54:34.686Z,3.40
2023-04-10T15:57:02.141Z,3.63
2023-04-10T15:59:29.340Z,4.13
2023-04-10T16:01:56.101Z,3.42
2023-04-10T16:04:23.199Z,4.13
2023-04-10T16:06:50.166Z,2.92
2023-04-10T16:09:24.828Z,3.42
2023-04-10T16:11:53.831Z,3.60
2023-04-10T16:14:20.770Z,3.05
2023-04-10T16:16:47.536Z,2.70
2023-04-10T16:19:14.388Z,3.75
2023-04-10T16:21:42.717Z,2.92
2023-04-10T16:24:09.340Z,3.17
2023-04-10T16:26:35.952Z,3.05
2023-04-10T16:29:02.747Z,4.53
2023-04-10T16:31:29.500Z,2.80
2023-04-10T16:33:56.676Z,3.33
2023-04-10T16:36:23.558Z,4.45
2023-04-10T16:38:50.533Z,3.15
2023-04-10T16:41:18.498Z,3.00
2023-04-10T16:43:45.664Z,3.47
2023-04-10T16:46:12.326Z,3.28
2023-04-10T16:48:39.014Z,6.45
2023-04-10T16:51:06.860Z,4.40
2023-04-10T16:53:35.935Z,3.72
2023-04-10T16:56:05.227Z,3.30
2023-04-10T16:58:37.250Z,3.47
2023-04-10T17:01:18.638Z,3.58
2023-04-10T17:03:47.666Z,4.57
2023-04-10T17:06:15.927Z,6.43
2023-04-10T17:08:43.214Z,3.72
2023-04-10T17:11:10.334Z,3.45
2023-04-10T17:13:37.166Z,2.90
2023-04-10T17:16:05.349Z,2.95
2023-04-10T17:18:32.711Z,3.30
2023-04-10T17:20:59.477Z,3.38
2023-04-10T17:23:26.210Z,3.58
2023-04-10T17:25:53.081Z,4.35
2023-04-10T17:28:19.920Z,3.45
2023-04-10T17:30:48.235Z,4.57
2023-04-10T17:33:15.094Z,3.45
2023-04-10T17:35:42.254Z,3.60
2023-04-10T17:38:09.022Z,3.05
2023-04-10T17:40:37.879Z,3.30
2023-04-10T17:43:04.579Z,3.60
2023-04-10T17:45:31.174Z,3.55
2023-04-10T17:47:57.973Z,3.65
2023-04-10T17:50:24.719Z,3.15
2023-04-10T17:52:51.435Z,2.72
2023-04-10T17:55:20.552Z,3.40
2023-04-10T17:57:48.506Z,3.17
2023-04-10T18:00:16.329Z,2.58
2023-04-10T18:02:48.018Z,5.43
2023-04-10T18:05:15.272Z,3.95
2023-04-10T18:07:42.251Z,2.90
2023-04-10T18:10:11.338Z,2.63
2023-04-10T18:12:38.250Z,2.38
2023-04-10T18:15:05.659Z,2.60
2023-04-10T18:17:32.416Z,2.72
2023-04-10T18:19:59.108Z,2.60
2023-04-10T18:22:25.921Z,2.10
2023-04-10T18:24:53.241Z,2.25
2023-04-10T18:27:20.018Z,2.55
2023-04-10T18:29:46.973Z,2.63
2023-04-10T18:32:13.597Z,2.28
2023-04-10T18:34:40.685Z,2.40
2023-04-10T18:37:09.681Z,6.53
2023-04-10T18:39:38.221Z,2.53
2023-04-10T18:42:07.475Z,2.90
2023-04-10T18:44:34.838Z,2.63
2023-04-10T18:47:04.818Z,2.08
2023-04-10T18:49:31.948Z,2.33
2023-04-10T18:51:58.661Z,2.70
2023-04-10T18:54:27.527Z,2.72
2023-04-10T18:56:54.442Z,2.35
2023-04-10T18:59:21.132Z,2.63
2023-04-10T19:01:47.861Z,2.53
2023-04-10T19:04:14.797Z,2.55
2023-04-10T19:06:43.708Z,2.80
2023-04-10T19:09:10.351Z,3.43
2023-04-10T19:11:37.469Z,4.55
2023-04-10T19:14:04.157Z,2.75
2023-04-10T19:19:01.317Z,3.17
2023-04-10T19:21:28.501Z,2.38
2023-04-10T19:23:55.430Z,2.83
2023-04-10T19:26:22.312Z,2.78
2023-04-10T19:28:48.989Z,2.58
2023-04-10T19:31:15.943Z,3.10
2023-04-10T19:33:42.690Z,3.08
2023-04-10T19:36:09.478Z,2.92
2023-04-10T19:38:36.292Z,2.40
2023-04-10T19:41:03.003Z,2.63
2023-04-10T19:43:29.794Z,4.57
2023-04-10T19:45:59.689Z,4.30
2023-04-10T19:48:26.458Z,2.63
2023-04-10T19:50:53.051Z,2.95
2023-04-10T19:53:19.707Z,3.17
2023-04-10T19:55:46.405Z,3.85
2023-04-10T19:58:29.980Z,3.38
2023-04-10T20:01:06.455Z,2.97
2023-04-10T20:03:33.471Z,3.28
2023-04-10T20:06:03.227Z,7.45
2023-04-10T20:08:30.513Z,5.30
2023-04-10T20:10:58.256Z,3.70
2023-04-10T20:13:25.406Z,5.63
2023-04-10T20:15:52.281Z,6.05
2023-04-10T20:18:19.248Z,7.20
2023-04-10T20:20:46.140Z,4.97
2023-04-10T20:23:12.945Z,4.72
2023-04-10T20:25:39.690Z,6.80
2023-04-10T20:28:06.603Z,4.93
2023-04-10T20:30:34.101Z,6.55
2023-04-10T20:33:00.811Z,5.97
2023-04-10T20:35:27.514Z,6.13
2023-04-10T20:37:54.195Z,7.03
2023-04-10T20:40:20.946Z,5.35
2023-04-10T20:42:47.697Z,7.50
2023-04-10T20:45:14.423Z,5.60
2023-04-10T20:47:41.119Z,8.23
2023-04-10T20:50:09.071Z,5.93
2023-04-10T20:52:36.366Z,4.40
2023-04-10T20:55:03.539Z,6.15
2023-04-10T20:57:30.237Z,5.15
2023-04-10T20:59:56.871Z,5.13
2023-04-10T21:02:23.623Z,5.18
2023-04-10T21:04:52.154Z,5.53
2023-04-10T21:07:18.874Z,4.53
2023-04-10T21:09:45.766Z,4.32
2023-04-10T21:12:12.473Z,3.47
2023-04-10T21:14:39.134Z,3.78
2023-04-10T21:17:05.788Z,4.72
2023-04-10T21:19:32.487Z,4.68
2023-04-10T21:21:59.323Z,4.45
2023-04-10T21:24:26.068Z,3.83
2023-04-10T21:26:52.724Z,4.28
2023-04-10T21:29:19.412Z,3.75
2023-04-10T21:31:46.537Z,4.15
2023-04-10T21:34:14.167Z,3.35
2023-04-10T21:36:40.771Z,4.50
2023-04-10T21:39:09.263Z,3.92
2023-04-10T21:41:39.852Z,4.97
2023-04-10T21:44:06.858Z,5.32
2023-04-10T21:46:33.851Z,4.07
2023-04-10T21:49:01.208Z,4.00
2023-04-10T21:51:28.269Z,3.63
2023-04-10T21:53:55.170Z,4.22
2023-04-10T21:56:21.927Z,3.65
2023-04-10T21:58:48.564Z,4.47
2023-04-10T22:01:15.327Z,3.88
2023-04-10T22:03:42.043Z,4.10
2023-04-10T22:06:09.191Z,3.70
2023-04-10T22:08:38.316Z,4.05
2023-04-10T22:11:05.944Z,3.58
2023-04-10T22:13:32.808Z,4.70
2023-04-10T22:16:02.218Z,7.03
2023-04-10T22:18:29.337Z,6.75
2023-04-10T22:20:56.043Z,3.58
2023-04-10T22:23:23.033Z,7.80
2023-04-10T22:25:50.020Z,6.53
2023-04-10T22:28:16.764Z,5.32
2023-04-10T22:30:43.466Z,4.82
2023-04-10T22:33:10.521Z,7.95
2023-04-10T22:35:37.568Z,6.25
2023-04-10T22:38:04.381Z,6.00
2023-04-10T22:40:31.247Z,6.05
2023-04-10T22:42:57.954Z,8.75
2023-04-10T22:45:24.604Z,8.35
2023-04-10T22:47:51.349Z,7.85
2023-04-10T22:50:18.106Z,7.40
2023-04-10T22:52:44.712Z,7.13
2023-04-10T22:55:11.599Z,8.98
2023-04-10T22:57:38.406Z,9.73
2023-04-10T23:00:05.487Z,8.50
2023-04-10T23:02:32.356Z,8.32
2023-04-10T23:04:59.087Z,7.65
2023-04-10T23:07:27.767Z,9.25
2023-04-10T23:09:54.512Z,8.23
2023-04-10T23:12:21.212Z,10.32
2023-04-10T23:14:47.849Z,7.03
2023-04-10T23:17:14.656Z,9.32
2023-04-10T23:19:41.308Z,7.97
2023-04-10T23:22:07.950Z,9.93
2023-04-10T23:24:34.711Z,8.20
2023-04-10T23:27:01.544Z,8.38
2023-04-10T23:29:28.160Z,9.82
2023-04-10T23:31:54.814Z,11.57
2023-04-10T23:34:21.446Z,11.25
2023-04-10T23:36:48.148Z,8.63
2023-04-10T23:39:15.082Z,4.13
2023-04-10T23:41:42.283Z,3.17
2023-04-10T23:44:09.017Z,3.75
2023-04-10T23:46:35.856Z,2.60
2023-04-10T23:49:02.849Z,2.83
2023-04-10T23:51:31.959Z,2.47
2023-04-10T23:53:58.964Z,6.07
2023-04-10T23:56:29.199Z,2.78
2023-04-10T23:58:56.710Z,2.13
